Time;durP1;ratioP1;P1;durP2;ratioP2;P2;SDS_P1;SDS_P2;PMS_P1;PMS_P2;Temp;Humidity;BMP_temperature;BMP_pressure;BME280_temperature;BME280_humidity;BME280_pressure;Samples;Min_cycle;Max_cycle;Signal;HPM_P1;HPM_P2
2023/10/06 00:01:44;;;;;;;;;;;;;;;9.11;100.00;97545.81;5067728;28;19947;-77
2023/10/06 00:04:12;;;;;;;;;;;;;;;9.09;100.00;97534.72;5067655;28;19937;-77
2023/10/06 00:06:40;;;;;;;;;;;;;;;9.08;100.00;97548.81;5067622;28;20251;-77
2023/10/06 00:09:06;;;;;;;;;;;;;;;9.06;100.00;97546.34;5068068;28;19942;-78
2023/10/06 00:11:32;;;;;;;;;;;;;;;9.05;100.00;97534.28;5067562;28;19949;-77
2023/10/06 00:14:07;;;;;;;;;;;;;;;9.03;100.00;97532.81;5068239;28;19939;-77
2023/10/06 00:16:39;;;;;;;;;;;;;;;9.02;100.00;97539.84;5068296;28;19936;-77
2023/10/06 00:19:31;;;;;;;;;;;;;;;9.01;100.00;97534.81;5067838;28;19931;-77
2023/10/06 00:24:42;;;;;;;;;;;;;;;8.98;100.00;97533.38;5067556;28;19941;-77
2023/10/06 00:27:11;;;;;;;;;;;;;;;8.96;100.00;97529.31;5068011;28;19949;-77
2023/10/06 00:29:38;;;;;;;;;;;;;;;8.92;100.00;97534.09;5067762;28;19943;-77
2023/10/06 00:32:22;;;;;;;;;;;;;;;8.88;100.00;97544.13;5067921;28;20131;-77
2023/10/06 00:35:04;;;;;;;;;;;;;;;8.84;100.00;97542.00;5067303;28;19986;-78
2023/10/06 00:37:34;;;;;;;;;;;;;;;8.82;100.00;97544.00;5067403;28;19940;-77
2023/10/06 00:40:00;;;;;;;;;;;;;;;8.79;100.00;97541.75;5066947;28;19950;-77
2023/10/06 00:42:27;;;;;;;;;;;;;;;8.75;100.00;97533.44;5066917;28;20009;-77
2023/10/06 00:44:53;;;;;;;;;;;;;;;8.72;100.00;97531.19;5066903;28;19933;-77
2023/10/06 00:47:21;;;;;;;;;;;;;;;8.69;100.00;97527.16;5065927;28;19971;-76
2023/10/06 00:49:46;;;;;;;;;;;;;;;8.68;100.00;97527.31;5065730;28;19946;-76
2023/10/06 00:52:15;;;;;;;;;;;;;;;8.65;100.00;97522.44;5066793;28;19937;-77
2023/10/06 00:54:46;;;;;;;;;;;;;;;8.64;100.00;97523.44;5066964;28;19940;-76
2023/10/06 00:57:15;;;;;;;;;;;;;;;8.61;100.00;97527.22;5066743;28;19934;-76
2023/10/06 00:59:41;;;;;;;;;;;;;;;8.59;100.00;97520.53;5064322;28;20159;-76
2023/10/06 01:02:11;;;;;;;;;;;;;;;8.57;100.00;97527.75;5066866;28;19939;-77
2023/10/06 01:04:42;;;;;;;;;;;;;;;8.56;100.00;97526.94;5066542;28;19939;-77
2023/10/06 01:07:08;;;;;;;;;;;;;;;8.54;100.00;97521.88;5067066;28;19933;-77
2023/10/06 01:09:34;;;;;;;;;;;;;;;8.54;100.00;97529.72;5066455;28;19941;-77
2023/10/06 01:12:04;;;;;;;;;;;;;;;8.56;100.00;97520.91;5066869;28;19934;-77
2023/10/06 01:14:34;;;;;;;;;;;;;;;8.54;100.00;97523.69;5067179;28;20193;-76
2023/10/06 01:19:35;;;;;;;;;;;;;;;8.51;100.00;97521.44;5066791;28;19953;-77
2023/10/06 01:22:24;;;;;;;;;;;;;;;8.48;100.00;97527.00;5066200;28;19936;-77
2023/10/06 01:24:52;;;;;;;;;;;;;;;8.44;100.00;97517.91;5066121;28;20106;-76
2023/10/06 01:27:18;;;;;;;;;;;;;;;8.42;100.00;97510.25;5066594;28;19926;-77
2023/10/06 01:29:45;;;;;;;;;;;;;;;8.42;100.00;97510.25;5066013;28;19936;-77
2023/10/06 01:32:11;;;;;;;;;;;;;;;8.42;100.00;97506.81;5066546;28;19939;-76
2023/10/06 01:34:40;;;;;;;;;;;;;;;8.41;100.00;97508.59;5066715;28;19998;-76
2023/10/06 01:37:07;;;;;;;;;;;;;;;8.40;100.00;97520.03;5066714;28;20132;-76
2023/10/06 01:39:36;;;;;;;;;;;;;;;8.37;100.00;97516.97;5066348;28;19937;-77
2023/10/06 01:42:17;;;;;;;;;;;;;;;8.33;100.00;97508.66;5065837;28;19938;-77
2023/10/06 01:44:43;;;;;;;;;;;;;;;8.31;100.00;97516.66;5066647;28;19941;-77
2023/10/06 01:47:09;;;;;;;;;;;;;;;8.29;100.00;97518.66;5065575;28;19971;-76
2023/10/06 01:49:35;;;;;;;;;;;;;;;8.28;100.00;97513.59;5048027;28;19944;-76
2023/10/06 01:52:05;;;;;;;;;;;;;;;8.25;100.00;97514.78;5065691;28;19937;-76
2023/10/06 01:54:34;;;;;;;;;;;;;;;8.24;100.00;97517.56;5065642;28;19938;-76
2023/10/06 01:57:06;;;;;;;;;;;;;;;8.22;100.00;97517.72;5066104;28;19936;-76
2023/10/06 01:59:33;;;;;;;;;;;;;;;8.20;100.00;97511.06;5065413;28;19943;-76
2023/10/06 02:02:01;;;;;;;;;;;;;;;8.15;100.00;97511.59;5065465;28;19944;-76
2023/10/06 02:04:38;;;;;;;;;;;;;;;8.12;100.00;97502.28;5065392;28;19937;-76
2023/10/06 02:07:05;;;;;;;;;;;;;;;8.07;100.00;97501.22;5066142;28;19942;-76
2023/10/06 02:09:32;;;;;;;;;;;;;;;8.05;100.00;97504.00;5065312;28;20181;-76
2023/10/06 02:11:58;;;;;;;;;;;;;;;8.01;100.00;97501.91;5065795;28;20196;-76
2023/10/06 02:14:23;;;;;;;;;;;;;;;7.98;100.00;97497.00;5043675;28;20005;-76
2023/10/06 02:16:54;;;;;;;;;;;;;;;7.96;100.00;97496.38;5043748;28;19942;-76
2023/10/06 02:19:20;;;;;;;;;;;;;;;7.92;100.00;97488.91;5043439;28;20167;-77
2023/10/06 02:21:46;;;;;;;;;;;;;;;7.91;100.00;97495.09;5026847;28;19953;-77
2023/10/06 02:24:12;;;;;;;;;;;;;;;7.89;100.00;97491.84;5043483;28;19931;-76
2023/10/06 02:26:39;;;;;;;;;;;;;;;7.86;100.00;97491.41;5043332;28;19965;-77
2023/10/06 02:29:28;;;;;;;;;;;;;;;7.82;100.00;97483.09;5044045;28;20137;-76
2023/10/06 02:31:52;;;;;;;;;;;;;;;7.79;100.00;97477.41;5042865;28;19940;-77
2023/10/06 02:34:26;;;;;;;;;;;;;;;7.76;100.00;97475.16;5043225;28;19951;-77
2023/10/06 02:36:54;;;;;;;;;;;;;;;7.73;100.00;97468.50;5043655;28;20091;-76
2023/10/06 02:39:20;;;;;;;;;;;;;;;7.69;100.00;97475.84;5043156;28;19942;-76
2023/10/06 02:41:47;;;;;;;;;;;;;;;7.68;100.00;97476.81;5043056;28;20119;-76
2023/10/06 02:44:22;;;;;;;;;;;;;;;7.68;100.00;97481.25;5043082;28;20129;-76
2023/10/06 02:46:51;;;;;;;;;;;;;;;7.65;100.00;97476.38;5064436;28;19964;-76
2023/10/06 02:49:31;;;;;;;;;;;;;;;7.61;100.00;97473.28;5064617;28;19936;-76
2023/10/06 02:52:00;;;;;;;;;;;;;;;7.59;100.00;97474.47;5065368;28;19939;-77
2023/10/06 02:54:29;;;;;;;;;;;;;;;7.56;100.00;97480.84;5064489;28;19959;-76
2023/10/06 02:56:55;;;;;;;;;;;;;;;7.53;100.00;97483.78;5064425;28;19932;-76
2023/10/06 02:59:25;;;;;;;;;;;;;;;7.52;100.00;97488.19;5064443;28;19939;-77
2023/10/06 03:01:52;;;;;;;;;;;;;;;7.49;100.00;97483.31;5064266;28;19958;-76
2023/10/06 03:04:21;;;;;;;;;;;;;;;7.48;100.00;97484.31;5065151;28;20206;-77
2023/10/06 03:06:53;;;;;;;;;;;;;;;7.48;100.00;97475.69;5064286;28;19938;-77
2023/10/06 03:09:20;;;;;;;;;;;;;;;7.47;100.00;97477.44;5063702;28;20109;-77
2023/10/06 03:11:50;;;;;;;;;;;;;;;7.47;100.00;97479.25;5064170;28;19934;-77
2023/10/06 03:14:24;;;;;;;;;;;;;;;7.48;100.00;97481.69;5064189;28;19937;-77
2023/10/06 03:16:51;;;;;;;;;;;;;;;7.48;100.00;97486.13;5064739;28;19932;-77
2023/10/06 03:19:24;;;;;;;;;;;;;;;7.47;100.00;97484.47;5064596;28;19951;-77
2023/10/06 03:21:53;;;;;;;;;;;;;;;7.45;100.00;97476.00;5064801;28;19953;-77
2023/10/06 03:24:30;;;;;;;;;;;;;;;7.44;100.00;97485.63;5063357;28;19935;-77
2023/10/06 03:27:04;;;;;;;;;;;;;;;7.44;100.00;97471.78;5064805;28;19986;-77
2023/10/06 03:29:54;;;;;;;;;;;;;;;7.44;100.00;97480.41;5063718;28;19937;-77
2023/10/06 03:32:29;;;;;;;;;;;;;;;7.42;100.00;97478.97;5063106;28;19993;-77
2023/10/06 03:34:57;;;;;;;;;;;;;;;7.41;100.00;97482.53;5064371;28;20139;-77
2023/10/06 03:37:35;;;;;;;;;;;;;;;7.38;100.00;97478.50;5064651;28;20126;-77
2023/10/06 03:40:11;;;;;;;;;;;;;;;7.36;100.00;97479.66;5062715;28;19937;-78
2023/10/06 03:42:38;;;;;;;;;;;;;;;7.34;100.00;97476.41;5064375;28;19942;-77
2023/10/06 03:45:18;;;;;;;;;;;;;;;7.32;100.00;97476.56;5064586;28;19943;-78
2023/10/06 03:47:48;;;;;;;;;;;;;;;7.31;100.00;97474.97;5063684;28;19969;-77
2023/10/06 03:50:15;;;;;;;;;;;;;;;7.30;100.00;97478.53;5063818;28;19941;-79
2023/10/06 03:52:41;;;;;;;;;;;;;;;7.29;100.00;97467.28;5064224;28;20207;-76
2023/10/06 03:55:07;;;;;;;;;;;;;;;7.30;100.00;97473.31;5063742;28;19939;-76
2023/10/06 03:57:33;;;;;;;;;;;;;;;7.25;100.00;97473.84;5064272;28;19936;-77
2023/10/06 03:59:59;;;;;;;;;;;;;;;7.22;100.00;97476.78;5063584;28;19958;-77
2023/10/06 04:02:26;;;;;;;;;;;;;;;7.20;100.00;97473.56;5063695;28;19946;-77
2023/10/06 04:04:53;;;;;;;;;;;;;;;7.19;100.00;97481.53;5063623;28;20237;-77
2023/10/06 04:07:19;;;;;;;;;;;;;;;7.17;100.00;97479.09;5063616;28;19931;-76
2023/10/06 04:09:49;;;;;;;;;;;;;;;7.17;100.00;97486.13;5064179;28;19939;-76
2023/10/06 04:12:15;;;;;;;;;;;;;;;7.15;100.00;97477.66;5063556;28;20042;-78
2023/10/06 04:14:41;;;;;;;;;;;;;;;7.13;100.00;97484.81;5063533;28;19940;-77
2023/10/06 04:17:09;;;;;;;;;;;;;;;7.11;100.00;97485.78;5063775;28;19942;-77
2023/10/06 04:19:35;;;;;;;;;;;;;;;7.10;100.00;97486.00;5063543;28;19933;-77
2023/10/06 04:22:03;;;;;;;;;;;;;;;7.09;100.00;97490.38;5063901;28;19974;-78
2023/10/06 04:24:29;;;;;;;;;;;;;;;7.07;100.00;97481.91;5064194;28;19938;-78
2023/10/06 04:26:56;;;;;;;;;;;;;;;7.05;100.00;97477.84;5063418;28;19999;-77
2023/10/06 04:29:25;;;;;;;;;;;;;;;7.03;100.00;97474.59;5063344;28;19936;-77
2023/10/06 04:31:51;;;;;;;;;;;;;;;7.02;100.00;97468.56;5063891;28;19933;-77
2023/10/06 04:34:21;;;;;;;;;;;;;;;7.03;100.00;97475.38;5064531;28;19957;-77
2023/10/06 04:36:48;;;;;;;;;;;;;;;7.03;100.00;97470.19;5067853;28;19925;-78
2023/10/06 04:39:16;;;;;;;;;;;;;;;7.02;100.00;97458.13;5066997;28;19945;-78
2023/10/06 04:41:42;;;;;;;;;;;;;;;7.02;100.00;97459.94;5066885;28;19955;-77
2023/10/06 04:44:10;;;;;;;;;;;;;;;7.03;100.00;97462.34;5066974;28;19931;-78
2023/10/06 04:46:37;;;;;;;;;;;;;;;7.02;100.00;97465.16;5066761;28;19937;-78
2023/10/06 04:49:03;;;;;;;;;;;;;;;7.02;100.00;97465.16;5067209;28;19939;-78
2023/10/06 04:51:28;;;;;;;;;;;;;;;7.02;100.00;97462.53;5066886;28;20135;-78
2023/10/06 04:53:55;;;;;;;;;;;;;;;7.01;100.00;97460.91;5066771;28;19983;-76
2023/10/06 04:56:20;;;;;;;;;;;;;;;6.98;100.00;97464.66;5066754;28;19935;-77
2023/10/06 04:58:46;;;;;;;;;;;;;;;6.98;100.00;97463.88;5066697;28;19934;-78
2023/10/06 05:01:13;;;;;;;;;;;;;;;6.97;100.00;97470.88;5065625;28;19975;-76
2023/10/06 05:03:45;;;;;;;;;;;;;;;6.97;100.00;97465.66;5066605;28;19995;-76
2023/10/06 05:06:13;;;;;;;;;;;;;;;6.97;100.00;97459.63;5066551;28;19932;-75
2023/10/06 05:08:39;;;;;;;;;;;;;;;6.99;100.00;97468.09;5066498;28;19981;-75
2023/10/06 05:11:06;;;;;;;;;;;;;;;6.98;100.00;97466.47;5067229;28;19934;-74
2023/10/06 05:13:33;;;;;;;;;;;;;;;6.98;100.00;97476.91;5066696;28;19941;-76
2023/10/06 05:15:58;;;;;;;;;;;;;;;6.96;100.00;97469.25;5066338;28;20000;-75
2023/10/06 05:18:24;;;;;;;;;;;;;;;6.96;100.00;97464.03;5067164;28;19945;-75
2023/10/06 05:20:52;;;;;;;;;;;;;;;6.95;100.00;97472.84;5066202;28;19990;-75
2023/10/06 05:23:20;;;;;;;;;;;;;;;6.94;100.00;97468.59;5066974;28;20224;-74
2023/10/06 05:25:46;;;;;;;;;;;;;;;6.91;100.00;97472.38;5066204;28;19995;-74
2023/10/06 05:28:16;;;;;;;;;;;;;;;6.90;100.00;97469.91;5066923;28;19936;-75
2023/10/06 05:30:43;;;;;;;;;;;;;;;6.88;100.00;97467.47;5066035;28;19937;-75
2023/10/06 05:33:09;;;;;;;;;;;;;;;6.85;100.00;97469.63;5066046;28;19937;-74
2023/10/06 05:35:36;;;;;;;;;;;;;;;6.82;100.00;97467.34;5065987;28;19959;-74
2023/10/06 05:38:03;;;;;;;;;;;;;;;6.81;100.00;97478.75;5066012;28;19942;-77
2023/10/06 05:40:29;;;;;;;;;;;;;;;6.79;100.00;97480.72;5066374;28;19952;-77
2023/10/06 05:42:55;;;;;;;;;;;;;;;6.76;100.00;97476.66;5066659;28;20095;-77
2023/10/06 05:45:21;;;;;;;;;;;;;;;6.75;100.00;97477.63;5066256;28;19936;-78
2023/10/06 05:47:50;;;;;;;;;;;;;;;6.75;100.00;97476.81;5065521;28;19987;-78
2023/10/06 05:50:18;;;;;;;;;;;;;;;6.74;100.00;97475.19;5065690;28;19945;-76
2023/10/06 05:52:51;;;;;;;;;;;;;;;6.73;100.00;97476.97;5065718;28;19929;-78
2023/10/06 05:55:20;;;;;;;;;;;;;;;6.74;100.00;97483.84;5065692;28;19941;-76
2023/10/06 05:57:52;;;;;;;;;;;;;;;6.76;100.00;97486.25;5065615;28;19944;-77
2023/10/06 06:00:24;;;;;;;;;;;;;;;6.78;100.00;97486.91;5065763;28;19940;-77
2023/10/06 06:02:52;;;;;;;;;;;;;;;6.79;100.00;97484.13;5066282;28;19927;-77
2023/10/06 06:05:17;;;;;;;;;;;;;;;6.89;100.00;97487.38;5065427;28;19934;-78
2023/10/06 06:07:43;;;;;;;;;;;;;;;7.06;100.00;97474.25;5065411;28;19995;-77
2023/10/06 06:10:15;;;;;;;;;;;;;;;7.32;100.00;97481.78;5065329;28;19933;-78
2023/10/06 06:12:41;;;;;;;;;;;;;;;7.58;100.00;97484.09;5066105;28;19934;-78
2023/10/06 06:15:11;;;;;;;;;;;;;;;7.84;100.00;97478.53;5065460;28;19957;-78
2023/10/06 06:17:37;;;;;;;;;;;;;;;8.16;100.00;97479.25;5066028;28;19927;-78
2023/10/06 06:20:07;;;;;;;;;;;;;;;8.44;100.00;97478.69;5065679;28;19936;-78
2023/10/06 06:22:37;;;;;;;;;;;;;;;8.61;100.00;97471.47;5065038;28;19949;-78
2023/10/06 06:25:05;;;;;;;;;;;;;;;8.72;100.00;97482.31;5065599;28;19941;-78
2023/10/06 06:27:32;;;;;;;;;;;;;;;8.68;100.00;97481.06;5065016;28;20204;-79
2023/10/06 06:29:58;;;;;;;;;;;;;;;8.52;100.00;97489.91;5065471;28;19945;-80
2023/10/06 06:32:25;;;;;;;;;;;;;;;8.35;100.00;97485.75;5064955;28;19940;-79
2023/10/06 06:34:51;;;;;;;;;;;;;;;8.25;100.00;97491.25;5064970;28;19959;-80
2023/10/06 06:37:17;;;;;;;;;;;;;;;8.21;100.00;97505.66;5064840;28;19937;-79
2023/10/06 06:39:44;;;;;;;;;;;;;;;8.22;100.00;97501.25;5064829;28;19965;-79
2023/10/06 06:42:10;;;;;;;;;;;;;;;8.22;100.00;97509.09;5064660;28;20138;-79
2023/10/06 06:44:36;;;;;;;;;;;;;;;8.24;100.00;97507.91;5065217;28;20099;-79
2023/10/06 06:47:03;;;;;;;;;;;;;;;8.37;100.00;97515.16;5064463;28;19969;-78
2023/10/06 06:49:29;;;;;;;;;;;;;;;8.53;100.00;97507.19;5064608;28;20244;-78
2023/10/06 06:51:58;;;;;;;;;;;;;;;8.74;100.00;97516.16;5065349;28;19936;-78
2023/10/06 06:54:24;;;;;;;;;;;;;;;8.97;100.00;97518.69;5064613;28;19936;-79
2023/10/06 06:56:50;;;;;;;;;;;;;;;9.18;100.00;97517.94;5064215;28;19950;-79
2023/10/06 06:59:17;;;;;;;;;;;;;;;9.35;100.00;97516.72;5063885;28;20218;-77
2023/10/06 07:01:43;;;;;;;;;;;;;;;9.58;100.00;97507.94;5064350;28;19951;-77
2023/10/06 07:04:09;;;;;;;;;;;;;;;9.80;100.00;97511.38;5065127;28;19936;-79
2023/10/06 07:06:35;;;;;;;;;;;;;;;9.91;100.00;97491.72;5064328;28;19943;-78
2023/10/06 07:09:01;;;;;;;;;;;;;;;10.06;100.00;97486.44;5064265;28;20249;-78
2023/10/06 07:11:27;;;;;;;;;;;;;;;10.17;100.00;97485.91;5064220;28;20249;-78
2023/10/06 07:13:55;;;;;;;;;;;;;;;10.21;100.00;97475.84;5064730;28;19936;-78
2023/10/06 07:16:24;;;;;;;;;;;;;;;10.18;100.00;97481.47;5064444;28;19934;-78
2023/10/06 07:18:50;;;;;;;;;;;;;;;10.23;100.00;97474.66;5063642;28;19939;-75
2023/10/06 07:21:17;;;;;;;;;;;;;;;10.33;100.00;97471.72;5063982;28;19960;-76
2023/10/06 07:23:43;;;;;;;;;;;;;;;10.40;100.00;97474.41;5064560;28;20096;-78
2023/10/06 07:26:10;;;;;;;;;;;;;;;10.41;100.00;97484.69;5063947;28;19973;-78
2023/10/06 07:28:38;;;;;;;;;;;;;;;10.43;100.00;97487.13;5063951;28;20120;-78
2023/10/06 07:31:08;;;;;;;;;;;;;;;10.45;100.00;97490.38;5064436;28;20094;-78
2023/10/06 07:33:34;;;;;;;;;;;;;;;10.48;100.00;97490.81;5064991;28;19933;-77
2023/10/06 07:36:00;;;;;;;;;;;;;;;10.49;100.00;97502.91;5064335;28;20251;-77
2023/10/06 07:38:26;;;;;;;;;;;;;;;10.54;100.00;97504.97;5063858;28;19933;-78
2023/10/06 07:40:52;;;;;;;;;;;;;;;10.60;100.00;97506.81;5063754;28;20025;-78
2023/10/06 07:43:18;;;;;;;;;;;;;;;10.67;100.00;97502.44;5063858;28;19942;-78
2023/10/06 07:45:44;;;;;;;;;;;;;;;10.76;100.00;97503.91;5063485;28;19942;-79
2023/10/06 07:48:10;;;;;;;;;;;;;;;10.83;100.00;97513.63;5063649;28;19964;-78
2023/10/06 07:50:37;;;;;;;;;;;;;;;10.95;100.00;97504.22;5062734;28;19948;-77
2023/10/06 07:53:03;;;;;;;;;;;;;;;11.06;100.00;97498.41;5063730;28;19951;-78
2023/10/06 07:55:31;;;;;;;;;;;;;;;11.11;100.00;97501.28;5064043;28;19969;-77
2023/10/06 07:57:58;;;;;;;;;;;;;;;11.15;100.00;97499.88;5063686;28;19932;-78
2023/10/06 08:00:32;;;;;;;;;;;;;;;11.09;100.00;97498.03;5063683;28;19934;-78
2023/10/06 08:02:59;;;;;;;;;;;;;;;11.14;100.00;97511.38;5064470;28;20210;-77
2023/10/06 08:05:25;;;;;;;;;;;;;;;11.26;100.00;97500.31;5064487;28;19928;-78
2023/10/06 08:07:52;;;;;;;;;;;;;;;11.41;100.00;97503.59;5063623;28;19936;-78
2023/10/06 08:10:18;;;;;;;;;;;;;;;11.52;100.00;97489.09;5066647;28;19933;-78
2023/10/06 08:12:45;;;;;;;;;;;;;;;11.61;100.00;97502.84;5067576;28;19939;-77
2023/10/06 08:15:11;;;;;;;;;;;;;;;11.67;100.00;97497.59;5067527;28;19944;-78
2023/10/06 08:17:37;;;;;;;;;;;;;;;11.75;100.00;97489.53;5068252;28;19936;-77
2023/10/06 08:20:05;;;;;;;;;;;;;;;11.73;100.00;97481.03;5067423;28;20272;-78
2023/10/06 08:22:33;;;;;;;;;;;;;;;11.76;100.00;97495.63;5067296;28;19959;-78
2023/10/06 08:25:00;;;;;;;;;;;;;;;11.85;100.00;97491.00;5067868;28;19934;-78
2023/10/06 08:27:26;;;;;;;;;;;;;;;11.91;100.00;97482.34;5067199;28;20211;-78
2023/10/06 08:29:52;;;;;;;;;;;;;;;11.93;100.00;97467.97;5067235;28;19941;-78
2023/10/06 08:32:19;;;;;;;;;;;;;;;11.94;100.00;97463.53;5067194;28;19940;-77
2023/10/06 08:34:46;;;;;;;;;;;;;;;11.93;100.00;97475.06;5067118;28;19962;-77
2023/10/06 08:37:12;;;;;;;;;;;;;;;11.95;100.00;97465.94;5067146;28;19936;-77
2023/10/06 08:39:38;;;;;;;;;;;;;;;11.92;100.00;97468.97;5067595;28;19941;-77
2023/10/06 08:42:06;;;;;;;;;;;;;;;11.93;100.00;97467.19;5066940;28;19961;-77
2023/10/06 08:44:34;;;;;;;;;;;;;;;11.94;100.00;97485.34;5066992;28;19933;-77
2023/10/06 08:47:01;;;;;;;;;;;;;;;11.98;100.00;97478.69;5066767;28;19966;-72
2023/10/06 08:49:27;;;;;;;;;;;;;;;12.12;100.00;97473.44;5067401;28;20103;-79
2023/10/06 08:51:56;;;;;;;;;;;;;;;12.15;100.00;97465.16;5066437;28;20190;-78
2023/10/06 08:54:23;;;;;;;;;;;;;;;12.20;100.00;97473.25;5066792;28;19943;-78
2023/10/06 08:56:49;;;;;;;;;;;;;;;12.24;100.00;97482.34;5066702;28;19940;-77
2023/10/06 08:59:16;;;;;;;;;;;;;;;12.25;100.00;97478.69;5067424;28;19941;-78
2023/10/06 09:01:43;;;;;;;;;;;;;;;12.30;100.00;97473.63;5066548;28;20147;-79
2023/10/06 09:04:09;;;;;;;;;;;;;;;12.38;100.00;97478.69;5066598;28;19941;-79
2023/10/06 09:06:38;;;;;;;;;;;;;;;12.46;100.00;97471.59;5067211;28;19939;-78
2023/10/06 09:09:05;;;;;;;;;;;;;;;12.51;100.00;97469.97;5066913;28;19932;-79
2023/10/06 09:11:38;;;;;;;;;;;;;;;12.56;100.00;97479.91;5066992;28;19938;-79
2023/10/06 09:14:07;;;;;;;;;;;;;;;12.62;100.00;97475.63;5066358;28;20121;-78
2023/10/06 09:16:48;;;;;;;;;;;;;;;12.68;100.00;97473.00;5066388;28;19939;-78
2023/10/06 09:19:14;;;;;;;;;;;;;;;12.74;100.00;97469.50;5066791;28;19933;-79
2023/10/06 09:21:59;;;;;;;;;;;;;;;12.77;100.00;97439.38;5065722;28;19967;-79
2023/10/06 09:24:25;;;;;;;;;;;;;;;12.85;100.00;97462.84;5066772;28;19938;-81
2023/10/06 09:26:51;;;;;;;;;;;;;;;12.96;100.00;97462.19;5066139;28;19939;-79
2023/10/06 09:29:29;;;;;;;;;;;;;;;13.09;100.00;97457.88;5066650;28;20213;-77
2023/10/06 09:31:57;;;;;;;;;;;;;;;13.19;100.00;97461.69;5066480;28;19942;-77
2023/10/06 09:34:24;;;;;;;;;;;;;;;13.31;100.00;97453.97;5065928;28;19958;-77
2023/10/06 09:36:51;;;;;;;;;;;;;;;13.37;100.00;97444.41;5066703;28;19941;-77
2023/10/06 09:39:29;;;;;;;;;;;;;;;13.39;100.00;97443.16;5065886;28;19933;-77
2023/10/06 09:41:57;;;;;;;;;;;;;;;13.41;100.00;97458.78;5065764;28;19958;-78
2023/10/06 09:44:25;;;;;;;;;;;;;;;13.44;100.00;97447.81;5066670;28;19939;-77
2023/10/06 09:46:52;;;;;;;;;;;;;;;13.47;100.00;97455.28;5065598;28;19960;-77
2023/10/06 09:49:20;;;;;;;;;;;;;;;13.54;100.00;97449.97;5066562;28;19937;-77
2023/10/06 09:51:46;;;;;;;;;;;;;;;13.62;100.00;97441.03;5066259;28;19941;-77
2023/10/06 09:54:12;;;;;;;;;;;;;;;13.70;100.00;97440.78;5065621;28;20122;-77
2023/10/06 09:56:41;;;;;;;;;;;;;;;13.77;100.00;97450.25;5065620;28;20240;-77
2023/10/06 09:59:13;;;;;;;;;;;;;;;13.88;100.00;97445.28;5065541;28;19940;-77
2023/10/06 10:01:39;;;;;;;;;;;;;;;13.95;100.00;97446.88;5064312;28;19951;-77
2023/10/06 10:04:10;;;;;;;;;;;;;;;14.04;100.00;97433.44;5065438;28;19941;-78
2023/10/06 10:06:43;;;;;;;;;;;;;;;14.12;100.00;97426.03;5065975;28;19933;-77
2023/10/06 10:09:20;;;;;;;;;;;;;;;14.24;100.00;97423.50;5065358;28;19936;-78
2023/10/06 10:11:57;;;;;;;;;;;;;;;14.38;100.00;97411.00;5065305;28;19936;-78
2023/10/06 10:14:34;;;;;;;;;;;;;;;14.49;100.00;97414.72;5066047;28;19958;-77
2023/10/06 10:17:21;;;;;;;;;;;;;;;14.63;100.00;97424.16;5065442;28;19940;-77
2023/10/06 10:19:47;;;;;;;;;;;;;;;14.70;100.00;97402.97;5065928;28;19942;-78
2023/10/06 10:22:16;;;;;;;;;;;;;;;14.77;100.00;97399.22;5065027;28;19950;-77
2023/10/06 10:24:43;;;;;;;;;;;;;;;14.85;100.00;97403.41;5065004;28;20239;-77
2023/10/06 10:27:12;;;;;;;;;;;;;;;14.91;100.00;97385.84;5064905;28;19934;-78
2023/10/06 10:29:40;;;;;;;;;;;;;;;14.92;100.00;97383.00;5065462;28;19943;-77
2023/10/06 10:32:14;;;;;;;;;;;;;;;14.99;100.00;97378.47;5064607;28;19990;-77
2023/10/06 10:34:58;;;;;;;;;;;;;;;15.09;100.00;97393.75;5065385;28;19958;-77
2023/10/06 10:37:24;;;;;;;;;;;;;;;15.17;100.00;97390.00;5065341;28;20110;-77
2023/10/06 10:39:51;;;;;;;;;;;;;;;15.26;97.70;97350.88;5064560;28;19935;-78
2023/10/06 10:42:18;;;;;;;;;;;;;;;15.32;95.94;97334.09;5064669;28;19957;-77
2023/10/06 10:44:50;;;;;;;;;;;;;;;15.38;97.13;97333.19;5064669;28;19936;-77
2023/10/06 10:47:16;;;;;;;;;;;;;;;15.49;100.00;97366.78;5064494;28;19960;-77
2023/10/06 10:49:44;;;;;;;;;;;;;;;15.69;100.00;97363.03;5064653;28;19938;-77
2023/10/06 10:52:10;;;;;;;;;;;;;;;15.85;99.61;97354.44;5064562;28;20120;-78
2023/10/06 10:54:40;;;;;;;;;;;;;;;15.99;97.16;97324.09;5064171;28;20241;-77
2023/10/06 10:57:09;;;;;;;;;;;;;;;16.14;94.95;97304.28;5063326;28;19946;-72
2023/10/06 10:59:55;;;;;;;;;;;;;;;16.34;94.63;97303.94;5046682;28;19943;-73
2023/10/06 11:02:20;;;;;;;;;;;;;;;16.58;92.67;97283.47;5064354;28;19953;-73
2023/10/06 11:04:48;;;;;;;;;;;;;;;16.82;92.92;97277.09;5064396;28;19985;-73
2023/10/06 11:07:18;;;;;;;;;;;;;;;17.03;89.14;97258.91;5064360;28;20249;-73
2023/10/06 11:09:47;;;;;;;;;;;;;;;17.17;89.89;97254.88;5064847;28;19941;-74
2023/10/06 11:12:15;;;;;;;;;;;;;;;17.36;91.04;97276.66;5064181;28;19944;-74
2023/10/06 11:14:41;;;;;;;;;;;;;;;17.55;91.53;97268.47;5064221;28;20101;-73
2023/10/06 11:17:07;;;;;;;;;;;;;;;17.76;88.93;97251.00;5064173;28;19964;-74
2023/10/06 11:19:34;;;;;;;;;;;;;;;17.95;86.17;97233.78;5064928;28;19980;-73
2023/10/06 11:22:13;;;;;;;;;;;;;;;18.15;87.93;97243.88;5064061;28;19960;-74
2023/10/06 11:24:40;;;;;;;;;;;;;;;18.25;79.57;97283.03;5064059;28;19952;-73
2023/10/06 11:27:14;;;;;;;;;;;;;;;18.31;76.61;97282.03;5064021;28;20242;-74
2023/10/06 11:29:40;;;;;;;;;;;;;;;18.43;86.86;97327.84;5064048;28;20124;-73
2023/10/06 11:32:07;;;;;;;;;;;;;;;18.56;84.00;97301.97;5064775;28;19936;-74
2023/10/06 11:34:34;;;;;;;;;;;;;;;18.68;77.92;97297.34;5064419;28;19980;-74
2023/10/06 11:37:01;;;;;;;;;;;;;;;18.66;79.72;97305.53;5063902;28;19942;-74
2023/10/06 11:39:31;;;;;;;;;;;;;;;18.71;80.92;97304.00;5063842;28;19931;-74
2023/10/06 11:42:15;;;;;;;;;;;;;;;18.63;79.76;97321.19;5064298;28;19972;-74
2023/10/06 11:44:41;;;;;;;;;;;;;;;18.73;82.55;97320.50;5063305;28;19942;-74
2023/10/06 11:47:07;;;;;;;;;;;;;;;18.81;75.33;97293.50;5063723;28;19964;-73
2023/10/06 11:49:33;;;;;;;;;;;;;;;18.86;79.11;97306.88;5063823;28;19943;-74
2023/10/06 11:51:59;;;;;;;;;;;;;;;18.99;80.06;97309.13;5063772;28;19962;-74
2023/10/06 11:54:27;;;;;;;;;;;;;;;19.08;77.50;97304.16;5063788;28;20141;-73
2023/10/06 11:56:56;;;;;;;;;;;;;;;19.13;73.31;97298.06;5063748;28;19940;-75
2023/10/06 11:59:22;;;;;;;;;;;;;;;19.17;76.94;97309.81;5063689;28;19949;-74
2023/10/06 12:01:48;;;;;;;;;;;;;;;19.19;69.88;97289.09;5063711;28;19954;-74
2023/10/06 12:04:29;;;;;;;;;;;;;;;19.20;73.92;97306.66;5064507;28;20217;-73
2023/10/06 12:06:57;;;;;;;;;;;;;;;19.23;76.72;97309.63;5063375;28;19945;-74
2023/10/06 12:09:23;;;;;;;;;;;;;;;19.28;74.87;97306.22;5064203;28;19937;-74
2023/10/06 12:11:50;;;;;;;;;;;;;;;19.31;72.76;97295.06;5064429;28;19935;-74
2023/10/06 12:14:16;;;;;;;;;;;;;;;19.31;71.51;97287.06;5063578;28;19934;-74
2023/10/06 12:16:44;;;;;;;;;;;;;;;19.27;73.19;97288.63;5063552;28;19940;-74
2023/10/06 12:19:11;;;;;;;;;;;;;;;19.23;74.10;97293.69;5064082;28;19931;-75
2023/10/06 12:21:37;;;;;;;;;;;;;;;19.22;66.16;97283.28;5063417;28;20153;-73
2023/10/06 12:24:03;;;;;;;;;;;;;;;19.30;73.06;97295.31;5063468;28;19933;-74
2023/10/06 12:26:28;;;;;;;;;;;;;;;19.39;71.95;97291.13;5064012;28;20234;-73
2023/10/06 12:28:54;;;;;;;;;;;;;;;19.48;70.68;97282.41;5063435;28;19948;-74
2023/10/06 12:31:20;;;;;;;;;;;;;;;19.54;63.25;97267.31;5063936;28;19936;-73
2023/10/06 12:33:46;;;;;;;;;;;;;;;19.62;67.69;97274.03;5063636;28;20106;-74
2023/10/06 12:36:12;;;;;;;;;;;;;;;19.72;64.52;97267.97;5063159;28;20168;-74
2023/10/06 12:38:41;;;;;;;;;;;;;;;19.85;72.15;97280.88;5063523;28;19933;-74
2023/10/06 12:41:07;;;;;;;;;;;;;;;19.97;70.03;97278.81;5063446;28;19957;-74
2023/10/06 12:43:36;;;;;;;;;;;;;;;20.00;62.86;97256.97;5062900;28;19951;-73
2023/10/06 12:46:03;;;;;;;;;;;;;;;20.04;68.88;97283.91;5062586;28;20146;-74
2023/10/06 12:48:30;;;;;;;;;;;;;;;20.02;69.20;97270.03;5062511;28;19971;-74
2023/10/06 12:50:56;;;;;;;;;;;;;;;19.90;68.04;97280.88;5063268;28;20114;-74
2023/10/06 12:53:22;;;;;;;;;;;;;;;19.83;66.29;97272.34;5063217;28;19946;-74
2023/10/06 12:55:56;;;;;;;;;;;;;;;19.90;64.76;97272.91;5063136;28;19951;-74